Terminal Aerodrome Forecast
Issued by NWS

Home | Current Version | Previous Version | Text Only | Print | Product List | Glossary On
Versions: 1 2 3 4 5 6 7 8 9 10 11 12 13 14 15 16 17 18 19 20 21 22
000
FTUS44 KSJT 200500
TAFJCT
TAF
KJCT 200520Z 2006/2106 13010KT P6SM OVC060
     FM200900 16010KT P6SM BKN015 OVC250
     FM201700 17011KT P6SM BKN025 OVC250=

USA.gov is the U.S. government's official web portal to all federal, state and local government web resources and services.